« 第七師団創隊六十二周年・東千歳駐屯地創立六十三周年記念行事【その4】 東千歳駐屯地 2017/6/3 sat | トップページ | 定点 富山空港 2017/6/18 sun »

2017/06/16

空旅 VNL907成田-新千歳 2017/6/2 fri

旅行目的は、すでにアップしていますが、今回も成田からLCC利用。

RJAA 012200Z 27007KT 230V300 9999 FEW020 23/18 Q0992 BECMG TL2300 23008KT

20170602_jw907_00dep

朝早く到着しすぎで、自分の乗る便を間違えそうになった。

20170602_jw907_01va

サテライトへの渡り廊下からT3の機体

20170602_jw907_02js

今回GATEは150番代なので、もどって橙軍団を眺めます。

20170602_jw907_03grnjp

T3の前にいろいろあれど、延々バス見学?で、NCA前へ

RJAA 020007Z 21010G20KT 9999 FEW020 SCT030 25/17 Q0992 RMK 1CU020 3CU030 A2930

20170602_jw907_04n208cq

N209CQ F900

20170602_jw907_05vpcbe

VP-CBE A330-202 Hong Kong Jet

20170602_jw907_06bhlu

CPA509 RJAA-VHHH B-HLU A330-343

RW16Rから離陸ですが、先行機は、キャセイのわんこ

20170602_jw907_07rw16r

ラインアップ 搭乗機はバニラの03

20170602_jw907_08hl8003

KAL706 RJAA-RKSI HL8003 A330-323

後続はコリアン

20170602_jw907_09rjaa

先日反対派の建物が撤去されたね。しかし、まだ残る。

20170602_jw907_10chiba

南に向かって海に出ましたが、ここでUターン

20170602_jw907_11chiba

また内陸に戻って行きます。

20170602_jw907_12narashino

空から見てみよう 習志野訓練場

20170602_jw907_13rjtl

霞んでるけど、下総飛行場

20170602_jw907_14yamata

KDDI八俣送信所 いつの間にか名崎は廃止されたのね。

20170602_jw907_15watarase

渡良瀬遊水池

20170602_jw907_16tomakomai

北関東から雲の上で、海が見えたのは下北半島の突端

20170602_jw907_17che

千歳VOR/DME(CHE)

20170602_jw907_18ja04va

先便の折り返しが出発してきた

RJCC 020130Z 30005KT 230V330 9999 FEW020 BKN100 18/13 Q0994 RMK 1CU020 7AC100 A2936

20170602_jw907_19ja04va

VNL9 RJCC-RJAA JA04VA A320-216

RW01L前で待っているとりりくー!

20170602_jw907_20ja743a

ANA58 RJCC-RJTT JA743A B777-281ER

ゲートに近づくとSW 

RJCC 020200Z 30007KT 270V340 9999 FEW020 SCT060 BKN100 19/14 Q0994 RMK 1CU020 3CU060 7AC100 A2935

20170602_jw907_21rjcc

5番スポットに入ります。いつの間にか橙はJAL側に移ったようです。

20170602_jw907_22ja65an

ANA774 RJCC-RJOO JA65AN B737-881

これから今日は、周辺で撮影です。

|

« 第七師団創隊六十二周年・東千歳駐屯地創立六十三周年記念行事【その4】 東千歳駐屯地 2017/6/3 sat | トップページ | 定点 富山空港 2017/6/18 sun »

成田国際空港」カテゴリの記事

千歳飛行場」カテゴリの記事

空撮」カテゴリの記事

コメント

コメントを書く



(ウェブ上には掲載しません)


コメントは記事投稿者が公開するまで表示されません。



トラックバック


この記事へのトラックバック一覧です: 空旅 VNL907成田-新千歳 2017/6/2 fri:

« 第七師団創隊六十二周年・東千歳駐屯地創立六十三周年記念行事【その4】 東千歳駐屯地 2017/6/3 sat | トップページ | 定点 富山空港 2017/6/18 sun »